sensor_id;sensor_type;location;lat;lon;timestamp;P1;durP1;ratioP1;P2;durP2;ratioP2
12332;SDS011;6232;48.094;11.288;2023-06-05T00:00:07;12.57;;;6.30;;
12332;SDS011;6232;48.094;11.288;2023-06-05T00:02:52;8.73;;;5.93;;
12332;SDS011;6232;48.094;11.288;2023-06-05T00:05:38;5.97;;;4.83;;
12332;SDS011;6232;48.094;11.288;2023-06-05T00:08:23;10.80;;;5.00;;
12332;SDS011;6232;48.094;11.288;2023-06-05T00:11:09;6.73;;;5.47;;
12332;SDS011;6232;48.094;11.288;2023-06-05T00:13:54;7.33;;;5.67;;
12332;SDS011;6232;48.094;11.288;2023-06-05T00:16:40;7.23;;;5.40;;
12332;SDS011;6232;48.094;11.288;2023-06-05T00:19:25;5.80;;;5.20;;
12332;SDS011;6232;48.094;11.288;2023-06-05T00:22:11;6.00;;;5.23;;
12332;SDS011;6232;48.094;11.288;2023-06-05T00:24:57;7.27;;;5.23;;
12332;SDS011;6232;48.094;11.288;2023-06-05T00:27:42;8.77;;;5.67;;
12332;SDS011;6232;48.094;11.288;2023-06-05T00:30:28;17.17;;;5.80;;
12332;SDS011;6232;48.094;11.288;2023-06-05T00:33:13;8.90;;;6.10;;
12332;SDS011;6232;48.094;11.288;2023-06-05T00:35:59;5.97;;;5.37;;
12332;SDS011;6232;48.094;11.288;2023-06-05T00:38:44;10.47;;;5.30;;
12332;SDS011;6232;48.094;11.288;2023-06-05T00:41:30;9.33;;;5.30;;
12332;SDS011;6232;48.094;11.288;2023-06-05T00:44:17;10.43;;;6.20;;
12332;SDS011;6232;48.094;11.288;2023-06-05T00:47:03;6.43;;;5.80;;
12332;SDS011;6232;48.094;11.288;2023-06-05T00:49:49;11.20;;;5.50;;
12332;SDS011;6232;48.094;11.288;2023-06-05T00:52:35;7.13;;;6.00;;
12332;SDS011;6232;48.094;11.288;2023-06-05T00:55:21;6.20;;;5.37;;
12332;SDS011;6232;48.094;11.288;2023-06-05T00:58:06;9.10;;;6.10;;
12332;SDS011;6232;48.094;11.288;2023-06-05T01:00:52;8.83;;;5.50;;
12332;SDS011;6232;48.094;11.288;2023-06-05T01:03:39;6.30;;;5.70;;
12332;SDS011;6232;48.094;11.288;2023-06-05T01:06:25;8.10;;;6.37;;
12332;SDS011;6232;48.094;11.288;2023-06-05T01:09:12;9.37;;;6.40;;
12332;SDS011;6232;48.094;11.288;2023-06-05T01:12:00;7.93;;;5.47;;
12332;SDS011;6232;48.094;11.288;2023-06-05T01:14:46;8.77;;;5.97;;
12332;SDS011;6232;48.094;11.288;2023-06-05T01:17:33;9.50;;;6.10;;
12332;SDS011;6232;48.094;11.288;2023-06-05T01:20:19;6.37;;;5.67;;
12332;SDS011;6232;48.094;11.288;2023-06-05T01:23:06;9.67;;;6.50;;
12332;SDS011;6232;48.094;11.288;2023-06-05T01:25:51;12.70;;;5.70;;
12332;SDS011;6232;48.094;11.288;2023-06-05T01:28:38;9.20;;;6.23;;
12332;SDS011;6232;48.094;11.288;2023-06-05T01:31:25;8.37;;;6.40;;
12332;SDS011;6232;48.094;11.288;2023-06-05T01:34:10;8.07;;;5.57;;
12332;SDS011;6232;48.094;11.288;2023-06-05T01:36:58;10.50;;;6.63;;
12332;SDS011;6232;48.094;11.288;2023-06-05T01:39:45;7.83;;;6.73;;
12332;SDS011;6232;48.094;11.288;2023-06-05T01:42:31;8.47;;;6.50;;
12332;SDS011;6232;48.094;11.288;2023-06-05T01:45:17;9.50;;;6.70;;
12332;SDS011;6232;48.094;11.288;2023-06-05T01:48:03;9.43;;;6.40;;
12332;SDS011;6232;48.094;11.288;2023-06-05T01:50:49;7.40;;;5.83;;
12332;SDS011;6232;48.094;11.288;2023-06-05T01:53:36;6.53;;;5.83;;
12332;SDS011;6232;48.094;11.288;2023-06-05T01:56:21;8.37;;;6.40;;
12332;SDS011;6232;48.094;11.288;2023-06-05T01:59:09;8.90;;;6.70;;
12332;SDS011;6232;48.094;11.288;2023-06-05T02:01:54;7.13;;;6.37;;
12332;SDS011;6232;48.094;11.288;2023-06-05T02:04:40;8.53;;;6.20;;
12332;SDS011;6232;48.094;11.288;2023-06-05T02:07:25;7.33;;;6.27;;
12332;SDS011;6232;48.094;11.288;2023-06-05T02:10:12;7.20;;;6.30;;
12332;SDS011;6232;48.094;11.288;2023-06-05T02:12:57;12.13;;;6.83;;
12332;SDS011;6232;48.094;11.288;2023-06-05T02:15:43;8.40;;;6.50;;
12332;SDS011;6232;48.094;11.288;2023-06-05T02:18:30;8.60;;;7.00;;
12332;SDS011;6232;48.094;11.288;2023-06-05T02:21:16;8.40;;;7.40;;
12332;SDS011;6232;48.094;11.288;2023-06-05T02:24:02;14.00;;;7.80;;
12332;SDS011;6232;48.094;11.288;2023-06-05T02:26:47;13.57;;;7.27;;
12332;SDS011;6232;48.094;11.288;2023-06-05T02:29:33;8.30;;;6.90;;
12332;SDS011;6232;48.094;11.288;2023-06-05T02:32:18;8.53;;;7.47;;
12332;SDS011;6232;48.094;11.288;2023-06-05T02:35:04;14.93;;;7.40;;
12332;SDS011;6232;48.094;11.288;2023-06-05T02:37:50;7.47;;;6.70;;
12332;SDS011;6232;48.094;11.288;2023-06-05T02:40:37;9.60;;;8.37;;
12332;SDS011;6232;48.094;11.288;2023-06-05T02:43:22;10.40;;;7.97;;
12332;SDS011;6232;48.094;11.288;2023-06-05T02:46:08;10.00;;;7.10;;
12332;SDS011;6232;48.094;11.288;2023-06-05T02:48:53;14.33;;;7.80;;
12332;SDS011;6232;48.094;11.288;2023-06-05T02:51:39;9.70;;;7.77;;
12332;SDS011;6232;48.094;11.288;2023-06-05T02:54:25;9.10;;;8.20;;
12332;SDS011;6232;48.094;11.288;2023-06-05T02:57:12;9.47;;;8.50;;
12332;SDS011;6232;48.094;11.288;2023-06-05T02:59:59;9.47;;;8.23;;
12332;SDS011;6232;48.094;11.288;2023-06-05T03:02:49;8.63;;;7.27;;
12332;SDS011;6232;48.094;11.288;2023-06-05T03:05:35;11.67;;;7.53;;
12332;SDS011;6232;48.094;11.288;2023-06-05T03:08:21;10.77;;;7.10;;
12332;SDS011;6232;48.094;11.288;2023-06-05T03:11:06;10.60;;;7.87;;
12332;SDS011;6232;48.094;11.288;2023-06-05T03:13:52;10.53;;;7.30;;
12332;SDS011;6232;48.094;11.288;2023-06-05T03:16:38;8.77;;;7.57;;
12332;SDS011;6232;48.094;11.288;2023-06-05T03:19:27;9.00;;;8.10;;
12332;SDS011;6232;48.094;11.288;2023-06-05T03:22:13;10.23;;;8.33;;
12332;SDS011;6232;48.094;11.288;2023-06-05T03:24:58;8.47;;;7.60;;
12332;SDS011;6232;48.094;11.288;2023-06-05T03:27:45;8.17;;;7.40;;
12332;SDS011;6232;48.094;11.288;2023-06-05T03:30:31;10.43;;;8.20;;
12332;SDS011;6232;48.094;11.288;2023-06-05T03:33:17;11.50;;;7.90;;
12332;SDS011;6232;48.094;11.288;2023-06-05T03:36:02;11.23;;;9.20;;
12332;SDS011;6232;48.094;11.288;2023-06-05T03:38:48;10.30;;;7.80;;
12332;SDS011;6232;48.094;11.288;2023-06-05T03:41:33;12.13;;;7.47;;
12332;SDS011;6232;48.094;11.288;2023-06-05T03:44:19;12.67;;;8.70;;
12332;SDS011;6232;48.094;11.288;2023-06-05T03:47:06;11.27;;;8.83;;
12332;SDS011;6232;48.094;11.288;2023-06-05T03:49:53;11.27;;;9.53;;
12332;SDS011;6232;48.094;11.288;2023-06-05T03:52:41;11.50;;;8.83;;
12332;SDS011;6232;48.094;11.288;2023-06-05T03:55:26;12.23;;;9.40;;
12332;SDS011;6232;48.094;11.288;2023-06-05T03:58:14;11.97;;;8.97;;
12332;SDS011;6232;48.094;11.288;2023-06-05T04:00:59;10.20;;;9.17;;
12332;SDS011;6232;48.094;11.288;2023-06-05T04:03:45;12.10;;;9.70;;
12332;SDS011;6232;48.094;11.288;2023-06-05T04:06:31;23.50;;;9.60;;
12332;SDS011;6232;48.094;11.288;2023-06-05T04:09:17;14.90;;;9.90;;
12332;SDS011;6232;48.094;11.288;2023-06-05T04:12:03;16.00;;;10.03;;
12332;SDS011;6232;48.094;11.288;2023-06-05T04:14:50;10.70;;;9.57;;
12332;SDS011;6232;48.094;11.288;2023-06-05T04:17:36;11.80;;;10.10;;
12332;SDS011;6232;48.094;11.288;2023-06-05T04:20:22;13.73;;;10.07;;
12332;SDS011;6232;48.094;11.288;2023-06-05T04:23:08;13.50;;;10.50;;
12332;SDS011;6232;48.094;11.288;2023-06-05T04:25:53;15.60;;;12.00;;
12332;SDS011;6232;48.094;11.288;2023-06-05T04:28:40;16.00;;;10.97;;
12332;SDS011;6232;48.094;11.288;2023-06-05T04:31:26;12.97;;;9.80;;
12332;SDS011;6232;48.094;11.288;2023-06-05T04:34:12;15.20;;;11.30;;
12332;SDS011;6232;48.094;11.288;2023-06-05T04:36:58;17.83;;;12.40;;
12332;SDS011;6232;48.094;11.288;2023-06-05T04:39:43;17.07;;;12.30;;
12332;SDS011;6232;48.094;11.288;2023-06-05T04:42:29;14.63;;;11.93;;
12332;SDS011;6232;48.094;11.288;2023-06-05T04:45:16;14.43;;;10.70;;
12332;SDS011;6232;48.094;11.288;2023-06-05T04:48:01;12.27;;;10.83;;
12332;SDS011;6232;48.094;11.288;2023-06-05T04:50:47;15.83;;;11.83;;
12332;SDS011;6232;48.094;11.288;2023-06-05T04:53:33;14.30;;;10.50;;
12332;SDS011;6232;48.094;11.288;2023-06-05T04:56:19;12.87;;;11.13;;
12332;SDS011;6232;48.094;11.288;2023-06-05T04:59:06;14.40;;;10.70;;
12332;SDS011;6232;48.094;11.288;2023-06-05T05:01:52;15.00;;;10.23;;
12332;SDS011;6232;48.094;11.288;2023-06-05T05:04:39;16.77;;;10.97;;
12332;SDS011;6232;48.094;11.288;2023-06-05T05:07:25;14.73;;;10.43;;
12332;SDS011;6232;48.094;11.288;2023-06-05T05:10:11;14.37;;;10.90;;
12332;SDS011;6232;48.094;11.288;2023-06-05T05:12:57;16.60;;;11.57;;
12332;SDS011;6232;48.094;11.288;2023-06-05T05:15:46;15.10;;;11.30;;
12332;SDS011;6232;48.094;11.288;2023-06-05T05:18:32;19.70;;;9.83;;
12332;SDS011;6232;48.094;11.288;2023-06-05T05:21:17;14.50;;;11.23;;
12332;SDS011;6232;48.094;11.288;2023-06-05T05:24:03;11.20;;;9.70;;
12332;SDS011;6232;48.094;11.288;2023-06-05T05:26:49;11.90;;;10.30;;
12332;SDS011;6232;48.094;11.288;2023-06-05T05:29:35;12.47;;;10.80;;
12332;SDS011;6232;48.094;11.288;2023-06-05T05:32:20;17.23;;;11.00;;
12332;SDS011;6232;48.094;11.288;2023-06-05T05:35:06;13.97;;;10.60;;
12332;SDS011;6232;48.094;11.288;2023-06-05T05:37:52;17.30;;;11.40;;
12332;SDS011;6232;48.094;11.288;2023-06-05T05:40:38;14.33;;;10.73;;
12332;SDS011;6232;48.094;11.288;2023-06-05T05:43:23;14.57;;;10.70;;
12332;SDS011;6232;48.094;11.288;2023-06-05T05:46:09;15.47;;;10.40;;
12332;SDS011;6232;48.094;11.288;2023-06-05T05:48:54;11.50;;;9.90;;
12332;SDS011;6232;48.094;11.288;2023-06-05T05:51:40;11.47;;;10.27;;
12332;SDS011;6232;48.094;11.288;2023-06-05T05:54:25;13.67;;;11.00;;
12332;SDS011;6232;48.094;11.288;2023-06-05T05:57:14;14.37;;;11.27;;
12332;SDS011;6232;48.094;11.288;2023-06-05T06:00:00;13.47;;;10.47;;
12332;SDS011;6232;48.094;11.288;2023-06-05T06:02:45;13.93;;;11.20;;
12332;SDS011;6232;48.094;11.288;2023-06-05T06:05:32;11.27;;;10.10;;
12332;SDS011;6232;48.094;11.288;2023-06-05T06:08:18;17.80;;;12.47;;
12332;SDS011;6232;48.094;11.288;2023-06-05T06:11:05;12.60;;;10.57;;
12332;SDS011;6232;48.094;11.288;2023-06-05T06:13:51;13.80;;;10.13;;
12332;SDS011;6232;48.094;11.288;2023-06-05T06:16:37;14.13;;;10.37;;
12332;SDS011;6232;48.094;11.288;2023-06-05T06:19:23;22.13;;;10.33;;
12332;SDS011;6232;48.094;11.288;2023-06-05T06:22:09;10.83;;;9.10;;
12332;SDS011;6232;48.094;11.288;2023-06-05T06:24:57;15.20;;;9.70;;
12332;SDS011;6232;48.094;11.288;2023-06-05T06:27:43;13.43;;;9.90;;
12332;SDS011;6232;48.094;11.288;2023-06-05T06:30:31;14.60;;;10.03;;
12332;SDS011;6232;48.094;11.288;2023-06-05T06:33:16;11.33;;;9.40;;
12332;SDS011;6232;48.094;11.288;2023-06-05T06:36:02;10.57;;;9.47;;
12332;SDS011;6232;48.094;11.288;2023-06-05T06:38:48;10.33;;;8.43;;
12332;SDS011;6232;48.094;11.288;2023-06-05T06:41:34;15.23;;;9.93;;
12332;SDS011;6232;48.094;11.288;2023-06-05T06:44:20;11.10;;;9.73;;
12332;SDS011;6232;48.094;11.288;2023-06-05T06:47:07;11.57;;;9.00;;
12332;SDS011;6232;48.094;11.288;2023-06-05T06:49:57;14.47;;;9.60;;
12332;SDS011;6232;48.094;11.288;2023-06-05T06:52:43;12.87;;;9.60;;
12332;SDS011;6232;48.094;11.288;2023-06-05T06:55:28;10.50;;;9.23;;
12332;SDS011;6232;48.094;11.288;2023-06-05T06:58:14;18.40;;;9.83;;
12332;SDS011;6232;48.094;11.288;2023-06-05T07:01:00;16.37;;;10.10;;
12332;SDS011;6232;48.094;11.288;2023-06-05T07:03:45;18.03;;;11.07;;
12332;SDS011;6232;48.094;11.288;2023-06-05T07:06:31;10.17;;;8.20;;
12332;SDS011;6232;48.094;11.288;2023-06-05T07:09:17;11.00;;;8.50;;
12332;SDS011;6232;48.094;11.288;2023-06-05T07:12:03;11.20;;;8.30;;
12332;SDS011;6232;48.094;11.288;2023-06-05T07:14:50;12.93;;;10.23;;
12332;SDS011;6232;48.094;11.288;2023-06-05T07:17:36;14.20;;;9.10;;
12332;SDS011;6232;48.094;11.288;2023-06-05T07:20:22;14.23;;;9.17;;
12332;SDS011;6232;48.094;11.288;2023-06-05T07:23:07;10.53;;;8.73;;
12332;SDS011;6232;48.094;11.288;2023-06-05T07:25:53;12.70;;;7.97;;
12332;SDS011;6232;48.094;11.288;2023-06-05T07:28:38;9.37;;;8.40;;
12332;SDS011;6232;48.094;11.288;2023-06-05T07:31:24;10.07;;;7.73;;
12332;SDS011;6232;48.094;11.288;2023-06-05T07:34:09;17.67;;;9.50;;
12332;SDS011;6232;48.094;11.288;2023-06-05T07:36:58;9.50;;;7.20;;
12332;SDS011;6232;48.094;11.288;2023-06-05T07:39:44;12.90;;;7.93;;
12332;SDS011;6232;48.094;11.288;2023-06-05T07:42:30;10.23;;;8.07;;
12332;SDS011;6232;48.094;11.288;2023-06-05T07:45:15;11.50;;;7.97;;
12332;SDS011;6232;48.094;11.288;2023-06-05T07:48:01;14.20;;;8.07;;
12332;SDS011;6232;48.094;11.288;2023-06-05T07:50:46;9.37;;;6.90;;
12332;SDS011;6232;48.094;11.288;2023-06-05T07:53:32;7.87;;;7.07;;
12332;SDS011;6232;48.094;11.288;2023-06-05T07:56:17;10.20;;;5.47;;
12332;SDS011;6232;48.094;11.288;2023-06-05T07:59:03;9.47;;;7.10;;
12332;SDS011;6232;48.094;11.288;2023-06-05T08:01:49;10.50;;;6.90;;
12332;SDS011;6232;48.094;11.288;2023-06-05T08:04:35;11.80;;;7.10;;
12332;SDS011;6232;48.094;11.288;2023-06-05T08:07:20;10.10;;;6.27;;
12332;SDS011;6232;48.094;11.288;2023-06-05T08:10:06;14.70;;;7.20;;
12332;SDS011;6232;48.094;11.288;2023-06-05T08:12:52;10.20;;;6.37;;
12332;SDS011;6232;48.094;11.288;2023-06-05T08:15:37;7.83;;;6.40;;
12332;SDS011;6232;48.094;11.288;2023-06-05T08:18:23;14.90;;;7.43;;
12332;SDS011;6232;48.094;11.288;2023-06-05T08:21:08;10.00;;;6.77;;
12332;SDS011;6232;48.094;11.288;2023-06-05T08:23:54;7.77;;;6.97;;
12332;SDS011;6232;48.094;11.288;2023-06-05T08:26:39;7.40;;;6.17;;
12332;SDS011;6232;48.094;11.288;2023-06-05T08:29:25;9.13;;;6.33;;
12332;SDS011;6232;48.094;11.288;2023-06-05T08:32:10;10.03;;;6.67;;
12332;SDS011;6232;48.094;11.288;2023-06-05T08:34:56;9.90;;;6.47;;
12332;SDS011;6232;48.094;11.288;2023-06-05T08:37:41;12.83;;;7.40;;
12332;SDS011;6232;48.094;11.288;2023-06-05T08:40:27;8.40;;;6.40;;
12332;SDS011;6232;48.094;11.288;2023-06-05T08:43:13;7.00;;;6.30;;
12332;SDS011;6232;48.094;11.288;2023-06-05T08:45:59;7.60;;;6.50;;
12332;SDS011;6232;48.094;11.288;2023-06-05T08:48:45;10.80;;;6.23;;
12332;SDS011;6232;48.094;11.288;2023-06-05T08:51:31;9.23;;;5.90;;
12332;SDS011;6232;48.094;11.288;2023-06-05T08:54:17;10.23;;;5.70;;
12332;SDS011;6232;48.094;11.288;2023-06-05T08:57:03;6.07;;;5.20;;
12332;SDS011;6232;48.094;11.288;2023-06-05T08:59:49;9.70;;;5.83;;
12332;SDS011;6232;48.094;11.288;2023-06-05T09:02:42;8.33;;;5.67;;
12332;SDS011;6232;48.094;11.288;2023-06-05T09:05:28;6.60;;;5.60;;
12332;SDS011;6232;48.094;11.288;2023-06-05T09:08:15;8.00;;;5.63;;
12332;SDS011;6232;48.094;11.288;2023-06-05T09:14:05;5.40;;;4.43;;
12332;SDS011;6232;48.094;11.288;2023-06-05T09:16:51;6.07;;;4.70;;
12332;SDS011;6232;48.094;11.288;2023-06-05T09:19:37;6.07;;;5.50;;
12332;SDS011;6232;48.094;11.288;2023-06-05T09:22:32;5.90;;;4.70;;
12332;SDS011;6232;48.094;11.288;2023-06-05T09:25:20;6.00;;;5.30;;
12332;SDS011;6232;48.094;11.288;2023-06-05T09:28:06;5.07;;;4.63;;
12332;SDS011;6232;48.094;11.288;2023-06-05T09:33:41;5.40;;;4.90;;
12332;SDS011;6232;48.094;11.288;2023-06-05T09:36:45;6.97;;;5.50;;
12332;SDS011;6232;48.094;11.288;2023-06-05T09:39:31;7.87;;;5.40;;
12332;SDS011;6232;48.094;11.288;2023-06-05T09:42:16;9.53;;;4.80;;
12332;SDS011;6232;48.094;11.288;2023-06-05T09:45:16;4.97;;;4.43;;
12332;SDS011;6232;48.094;11.288;2023-06-05T09:48:12;5.73;;;5.20;;
12332;SDS011;6232;48.094;11.288;2023-06-05T09:51:07;4.80;;;4.27;;
12332;SDS011;6232;48.094;11.288;2023-06-05T09:53:52;7.77;;;5.10;;
12332;SDS011;6232;48.094;11.288;2023-06-05T09:56:41;6.37;;;4.93;;
12332;SDS011;6232;48.094;11.288;2023-06-05T09:59:29;6.87;;;4.63;;
12332;SDS011;6232;48.094;11.288;2023-06-05T10:02:15;6.20;;;4.63;;
12332;SDS011;6232;48.094;11.288;2023-06-05T10:05:02;5.37;;;4.77;;
12332;SDS011;6232;48.094;11.288;2023-06-05T10:07:49;11.30;;;5.50;;
12332;SDS011;6232;48.094;11.288;2023-06-05T10:10:39;10.90;;;5.67;;
12332;SDS011;6232;48.094;11.288;2023-06-05T10:13:25;6.07;;;5.50;;
12332;SDS011;6232;48.094;11.288;2023-06-05T10:16:11;5.80;;;4.87;;
12332;SDS011;6232;48.094;11.288;2023-06-05T10:18:57;5.10;;;4.57;;
12332;SDS011;6232;48.094;11.288;2023-06-05T10:21:45;6.43;;;4.43;;
12332;SDS011;6232;48.094;11.288;2023-06-05T10:24:35;5.37;;;4.87;;
12332;SDS011;6232;48.094;11.288;2023-06-05T10:36:06;7.13;;;4.50;;
12332;SDS011;6232;48.094;11.288;2023-06-05T10:38:55;4.70;;;4.30;;
12332;SDS011;6232;48.094;11.288;2023-06-05T10:41:42;9.33;;;4.70;;
12332;SDS011;6232;48.094;11.288;2023-06-05T10:44:41;5.87;;;4.50;;
12332;SDS011;6232;48.094;11.288;2023-06-05T10:53:06;5.43;;;4.93;;
12332;SDS011;6232;48.094;11.288;2023-06-05T10:55:52;4.68;;;4.25;;
12332;SDS011;6232;48.094;11.288;2023-06-05T10:58:37;5.22;;;4.30;;
12332;SDS011;6232;48.094;11.288;2023-06-05T11:01:44;7.78;;;3.88;;
12332;SDS011;6232;48.094;11.288;2023-06-05T11:07:31;4.47;;;4.07;;
12332;SDS011;6232;48.094;11.288;2023-06-05T11:10:17;4.20;;;3.90;;
12332;SDS011;6232;48.094;11.288;2023-06-05T11:13:06;5.18;;;4.40;;
12332;SDS011;6232;48.094;11.288;2023-06-05T11:15:52;4.75;;;4.00;;
12332;SDS011;6232;48.094;11.288;2023-06-05T11:18:41;5.15;;;4.68;;
12332;SDS011;6232;48.094;11.288;2023-06-05T11:22:00;5.18;;;4.28;;
12332;SDS011;6232;48.094;11.288;2023-06-05T11:24:33;9.82;;;4.30;;
12332;SDS011;6232;48.094;11.288;2023-06-05T11:30:25;6.15;;;4.38;;
12332;SDS011;6232;48.094;11.288;2023-06-05T11:33:17;6.65;;;4.28;;
12332;SDS011;6232;48.094;11.288;2023-06-05T11:36:04;6.93;;;4.63;;
12332;SDS011;6232;48.094;11.288;2023-06-05T11:38:54;9.75;;;4.90;;
12332;SDS011;6232;48.094;11.288;2023-06-05T11:41:43;5.13;;;4.40;;
12332;SDS011;6232;48.094;11.288;2023-06-05T11:44:30;5.32;;;4.47;;
12332;SDS011;6232;48.094;11.288;2023-06-05T11:47:26;7.50;;;4.38;;
12332;SDS011;6232;48.094;11.288;2023-06-05T11:50:14;4.88;;;4.30;;
12332;SDS011;6232;48.094;11.288;2023-06-05T11:55:50;6.13;;;4.05;;
12332;SDS011;6232;48.094;11.288;2023-06-05T11:58:37;5.20;;;4.70;;
12332;SDS011;6232;48.094;11.288;2023-06-05T12:01:23;6.13;;;4.72;;
12332;SDS011;6232;48.094;11.288;2023-06-05T12:04:16;5.07;;;4.57;;
12332;SDS011;6232;48.094;11.288;2023-06-05T12:07:02;5.90;;;4.43;;
12332;SDS011;6232;48.094;11.288;2023-06-05T12:09:51;7.80;;;4.77;;
12332;SDS011;6232;48.094;11.288;2023-06-05T12:13:10;7.30;;;5.60;;
12332;SDS011;6232;48.094;11.288;2023-06-05T12:15:55;5.47;;;4.97;;
12332;SDS011;6232;48.094;11.288;2023-06-05T12:18:41;11.50;;;4.77;;
12332;SDS011;6232;48.094;11.288;2023-06-05T12:21:27;6.60;;;4.40;;
12332;SDS011;6232;48.094;11.288;2023-06-05T12:24:13;8.70;;;4.40;;
12332;SDS011;6232;48.094;11.288;2023-06-05T12:27:02;6.63;;;4.63;;
12332;SDS011;6232;48.094;11.288;2023-06-05T12:29:53;5.23;;;4.73;;
12332;SDS011;6232;48.094;11.288;2023-06-05T12:32:39;7.30;;;5.93;;
12332;SDS011;6232;48.094;11.288;2023-06-05T12:35:25;6.30;;;5.70;;
12332;SDS011;6232;48.094;11.288;2023-06-05T12:38:13;8.97;;;5.20;;
12332;SDS011;6232;48.094;11.288;2023-06-05T12:40:59;6.03;;;5.43;;
12332;SDS011;6232;48.094;11.288;2023-06-05T12:43:45;11.03;;;5.30;;
12332;SDS011;6232;48.094;11.288;2023-06-05T12:46:31;6.03;;;4.97;;
12332;SDS011;6232;48.094;11.288;2023-06-05T12:49:17;7.77;;;5.60;;
12332;SDS011;6232;48.094;11.288;2023-06-05T12:52:03;6.83;;;5.00;;
12332;SDS011;6232;48.094;11.288;2023-06-05T12:54:49;6.60;;;5.47;;
12332;SDS011;6232;48.094;11.288;2023-06-05T12:57:34;7.90;;;4.87;;
12332;SDS011;6232;48.094;11.288;2023-06-05T13:00:20;6.57;;;5.10;;
12332;SDS011;6232;48.094;11.288;2023-06-05T13:03:06;8.83;;;5.07;;
12332;SDS011;6232;48.094;11.288;2023-06-05T13:05:52;9.40;;;5.30;;
12332;SDS011;6232;48.094;11.288;2023-06-05T13:08:37;6.80;;;5.03;;
12332;SDS011;6232;48.094;11.288;2023-06-05T13:11:23;8.43;;;4.50;;
12332;SDS011;6232;48.094;11.288;2023-06-05T13:14:09;5.80;;;3.90;;
12332;SDS011;6232;48.094;11.288;2023-06-05T13:16:54;4.85;;;4.13;;
12332;SDS011;6232;48.094;11.288;2023-06-05T13:19:40;7.90;;;4.35;;
12332;SDS011;6232;48.094;11.288;2023-06-05T13:22:26;6.05;;;4.20;;
12332;SDS011;6232;48.094;11.288;2023-06-05T13:25:12;6.20;;;4.43;;
12332;SDS011;6232;48.094;11.288;2023-06-05T13:27:58;6.55;;;4.40;;
12332;SDS011;6232;48.094;11.288;2023-06-05T13:30:43;5.18;;;4.25;;
12332;SDS011;6232;48.094;11.288;2023-06-05T13:33:29;4.65;;;4.25;;
12332;SDS011;6232;48.094;11.288;2023-06-05T13:36:14;7.63;;;4.90;;
12332;SDS011;6232;48.094;11.288;2023-06-05T13:39:00;5.83;;;4.10;;
12332;SDS011;6232;48.094;11.288;2023-06-05T13:41:46;4.43;;;4.03;;
12332;SDS011;6232;48.094;11.288;2023-06-05T13:44:31;5.00;;;4.50;;
12332;SDS011;6232;48.094;11.288;2023-06-05T13:47:17;4.70;;;4.30;;
12332;SDS011;6232;48.094;11.288;2023-06-05T13:50:03;5.80;;;4.63;;
12332;SDS011;6232;48.094;11.288;2023-06-05T13:52:49;6.10;;;4.50;;
12332;SDS011;6232;48.094;11.288;2023-06-05T13:55:34;5.13;;;4.10;;
12332;SDS011;6232;48.094;11.288;2023-06-05T13:58:20;7.57;;;5.07;;
12332;SDS011;6232;48.094;11.288;2023-06-05T14:01:05;5.30;;;4.70;;
12332;SDS011;6232;48.094;11.288;2023-06-05T14:03:51;6.60;;;3.90;;
12332;SDS011;6232;48.094;11.288;2023-06-05T14:06:37;5.80;;;4.60;;
12332;SDS011;6232;48.094;11.288;2023-06-05T14:09:24;6.33;;;4.43;;
12332;SDS011;6232;48.094;11.288;2023-06-05T14:12:10;9.90;;;4.13;;
12332;SDS011;6232;48.094;11.288;2023-06-05T14:14:55;4.13;;;3.70;;
12332;SDS011;6232;48.094;11.288;2023-06-05T14:17:41;9.93;;;4.50;;
12332;SDS011;6232;48.094;11.288;2023-06-05T14:20:27;6.73;;;4.17;;
12332;SDS011;6232;48.094;11.288;2023-06-05T14:23:12;4.70;;;4.30;;
12332;SDS011;6232;48.094;11.288;2023-06-05T14:25:58;7.50;;;3.90;;
12332;SDS011;6232;48.094;11.288;2023-06-05T14:28:43;6.50;;;3.77;;
12332;SDS011;6232;48.094;11.288;2023-06-05T14:31:29;6.33;;;3.67;;
12332;SDS011;6232;48.094;11.288;2023-06-05T14:34:14;5.57;;;4.50;;
12332;SDS011;6232;48.094;11.288;2023-06-05T14:37:01;12.63;;;4.23;;
12332;SDS011;6232;48.094;11.288;2023-06-05T14:39:47;8.87;;;4.03;;
12332;SDS011;6232;48.094;11.288;2023-06-05T14:42:32;5.70;;;3.80;;
12332;SDS011;6232;48.094;11.288;2023-06-05T14:45:18;8.33;;;4.37;;
12332;SDS011;6232;48.094;11.288;2023-06-05T14:48:03;4.63;;;4.13;;
12332;SDS011;6232;48.094;11.288;2023-06-05T14:50:49;6.83;;;4.13;;
12332;SDS011;6232;48.094;11.288;2023-06-05T14:53:35;7.60;;;3.57;;
12332;SDS011;6232;48.094;11.288;2023-06-05T14:56:20;4.57;;;4.17;;
12332;SDS011;6232;48.094;11.288;2023-06-05T14:59:07;11.30;;;3.60;;
12332;SDS011;6232;48.094;11.288;2023-06-05T15:01:53;8.30;;;4.70;;
12332;SDS011;6232;48.094;11.288;2023-06-05T15:04:39;6.50;;;5.30;;
12332;SDS011;6232;48.094;11.288;2023-06-05T15:07:24;4.83;;;4.40;;
12332;SDS011;6232;48.094;11.288;2023-06-05T15:10:10;6.13;;;4.13;;
12332;SDS011;6232;48.094;11.288;2023-06-05T15:12:58;7.80;;;4.17;;
12332;SDS011;6232;48.094;11.288;2023-06-05T15:15:43;6.00;;;3.90;;
12332;SDS011;6232;48.094;11.288;2023-06-05T15:18:29;10.13;;;4.40;;
12332;SDS011;6232;48.094;11.288;2023-06-05T15:21:14;7.67;;;3.87;;
12332;SDS011;6232;48.094;11.288;2023-06-05T15:24:00;3.97;;;3.63;;
12332;SDS011;6232;48.094;11.288;2023-06-05T15:26:45;7.67;;;4.33;;
12332;SDS011;6232;48.094;11.288;2023-06-05T15:29:31;6.27;;;5.30;;
12332;SDS011;6232;48.094;11.288;2023-06-05T15:32:16;4.33;;;3.80;;
12332;SDS011;6232;48.094;11.288;2023-06-05T15:35:02;4.43;;;3.80;;
12332;SDS011;6232;48.094;11.288;2023-06-05T15:37:48;4.80;;;4.30;;
12332;SDS011;6232;48.094;11.288;2023-06-05T15:40:33;4.13;;;3.70;;
12332;SDS011;6232;48.094;11.288;2023-06-05T15:43:19;6.70;;;4.00;;
12332;SDS011;6232;48.094;11.288;2023-06-05T15:46:04;8.80;;;4.23;;
12332;SDS011;6232;48.094;11.288;2023-06-05T15:48:50;6.77;;;3.90;;
12332;SDS011;6232;48.094;11.288;2023-06-05T15:51:35;8.70;;;4.20;;
12332;SDS011;6232;48.094;11.288;2023-06-05T15:54:22;5.10;;;3.63;;
12332;SDS011;6232;48.094;11.288;2023-06-05T15:57:08;5.00;;;4.00;;
12332;SDS011;6232;48.094;11.288;2023-06-05T15:59:53;4.13;;;3.77;;
12332;SDS011;6232;48.094;11.288;2023-06-05T16:02:39;5.67;;;4.10;;
12332;SDS011;6232;48.094;11.288;2023-06-05T16:05:24;6.20;;;4.17;;
12332;SDS011;6232;48.094;11.288;2023-06-05T16:08:10;6.00;;;4.20;;
12332;SDS011;6232;48.094;11.288;2023-06-05T16:10:56;5.60;;;4.70;;
12332;SDS011;6232;48.094;11.288;2023-06-05T16:13:44;4.33;;;3.93;;
12332;SDS011;6232;48.094;11.288;2023-06-05T16:16:29;5.07;;;3.90;;
12332;SDS011;6232;48.094;11.288;2023-06-05T16:19:15;5.07;;;3.57;;
12332;SDS011;6232;48.094;11.288;2023-06-05T16:22:00;4.00;;;3.67;;
12332;SDS011;6232;48.094;11.288;2023-06-05T16:24:46;4.83;;;4.00;;
12332;SDS011;6232;48.094;11.288;2023-06-05T16:27:31;4.00;;;3.70;;
12332;SDS011;6232;48.094;11.288;2023-06-05T16:30:17;4.40;;;4.00;;
12332;SDS011;6232;48.094;11.288;2023-06-05T16:33:03;4.40;;;4.00;;
12332;SDS011;6232;48.094;11.288;2023-06-05T16:35:48;6.90;;;3.97;;
12332;SDS011;6232;48.094;11.288;2023-06-05T16:38:34;6.80;;;4.23;;
12332;SDS011;6232;48.094;11.288;2023-06-05T16:41:19;9.03;;;4.20;;
12332;SDS011;6232;48.094;11.288;2023-06-05T16:44:05;5.83;;;4.13;;
12332;SDS011;6232;48.094;11.288;2023-06-05T16:46:52;3.97;;;3.67;;
12332;SDS011;6232;48.094;11.288;2023-06-05T16:49:37;4.40;;;4.00;;
12332;SDS011;6232;48.094;11.288;2023-06-05T16:52:23;4.17;;;3.80;;
12332;SDS011;6232;48.094;11.288;2023-06-05T16:55:11;6.10;;;4.77;;
12332;SDS011;6232;48.094;11.288;2023-06-05T16:57:57;6.87;;;5.40;;
12332;SDS011;6232;48.094;11.288;2023-06-05T17:00:42;8.87;;;6.30;;
12332;SDS011;6232;48.094;11.288;2023-06-05T17:03:28;7.50;;;6.80;;